createdAt,value
2022-09-16T00:01:22.456Z,90.45
2022-09-16T00:03:50.993Z,89.67
2022-09-16T00:06:21.455Z,90.64
2022-09-16T00:08:50.386Z,91.48
2022-09-16T00:11:20.198Z,91.43
2022-09-16T00:13:48.596Z,91.38
2022-09-16T00:16:21.518Z,91.33
2022-09-16T00:18:50.459Z,90.00
2022-09-16T00:21:18.431Z,90.35
2022-09-16T00:23:46.520Z,91.93
2022-09-16T00:26:14.671Z,91.37
2022-09-16T00:28:44.486Z,91.05
2022-09-16T00:31:13.013Z,92.27
2022-09-16T00:33:40.979Z,90.86
2022-09-16T00:36:10.941Z,90.38
2022-09-16T00:38:40.299Z,91.37
2022-09-16T00:41:09.428Z,90.42
2022-09-16T00:43:55.853Z,90.66
2022-09-16T00:46:31.549Z,90.20
2022-09-16T00:49:03.458Z,90.41
2022-09-16T00:51:31.455Z,91.07
2022-09-16T00:54:04.791Z,90.60
2022-09-16T00:56:38.689Z,91.12
2022-09-16T00:59:11.283Z,90.88
2022-09-16T01:01:40.682Z,90.45
2022-09-16T01:04:15.240Z,90.80
2022-09-16T01:06:44.099Z,90.95
2022-09-16T01:09:12.282Z,90.99
2022-09-16T01:11:40.326Z,91.78
2022-09-16T01:14:27.743Z,90.37
2022-09-16T01:17:00.250Z,90.80
2022-09-16T01:19:53.073Z,91.89
2022-09-16T01:22:43.142Z,90.81
2022-09-16T01:25:27.249Z,90.88
2022-09-16T01:28:16.842Z,91.20
2022-09-16T01:31:09.403Z,90.25
2022-09-16T01:33:45.929Z,90.87
2022-09-16T01:36:27.284Z,90.63
2022-09-16T01:39:09.079Z,90.40
2022-09-16T01:42:06.419Z,90.98
2022-09-16T01:44:41.328Z,90.37
2022-09-16T01:47:22.266Z,90.23
2022-09-16T01:50:01.021Z,88.20
2022-09-16T01:52:40.798Z,89.27
2022-09-16T01:55:15.059Z,88.12
2022-09-16T01:57:52.355Z,89.09
2022-09-16T02:00:21.315Z,88.69
2022-09-16T02:02:57.624Z,89.33
2022-09-16T02:05:29.783Z,90.00
2022-09-16T02:08:03.196Z,90.07
2022-09-16T02:10:34.900Z,89.79
2022-09-16T02:13:09.419Z,89.28
2022-09-16T02:15:41.769Z,89.50
2022-09-16T02:18:14.374Z,89.54
2022-09-16T02:20:46.414Z,89.83
2022-09-16T02:23:17.824Z,90.80
2022-09-16T02:25:49.666Z,90.84
2022-09-16T02:28:21.726Z,90.59
2022-09-16T02:30:54.351Z,90.37
2022-09-16T02:33:26.452Z,91.74
2022-09-16T02:35:56.886Z,91.33
2022-09-16T02:38:28.374Z,90.56
2022-09-16T02:41:00.047Z,91.04
2022-09-16T02:43:30.056Z,90.62
2022-09-16T02:46:08.120Z,90.44
2022-09-16T02:48:48.419Z,91.46
2022-09-16T02:51:26.055Z,90.51
2022-09-16T02:53:58.230Z,90.87
2022-09-16T02:56:32.094Z,89.43
2022-09-16T02:59:01.717Z,89.96
2022-09-16T03:01:33.095Z,91.22
2022-09-16T03:04:02.490Z,90.09
2022-09-16T03:06:36.314Z,89.47
2022-09-16T03:09:07.349Z,88.65
2022-09-16T03:12:03.971Z,88.95
2022-09-16T03:15:03.527Z,88.36
2022-09-16T03:17:59.382Z,88.38
2022-09-16T03:20:37.469Z,89.87
2022-09-16T03:23:15.212Z,87.53
2022-09-16T03:25:49.996Z,87.59
2022-09-16T03:28:20.693Z,87.81
2022-09-16T03:30:56.497Z,87.32
2022-09-16T03:33:29.497Z,85.96
2022-09-16T03:36:01.853Z,85.53
2022-09-16T03:38:30.281Z,84.70
2022-09-16T03:40:58.545Z,86.10
2022-09-16T03:43:26.604Z,82.73
2022-09-16T03:45:54.378Z,82.99
2022-09-16T03:48:22.518Z,84.06
2022-09-16T03:50:50.314Z,83.27
2022-09-16T03:53:19.726Z,82.26
2022-09-16T03:55:49.847Z,83.93
2022-09-16T03:58:17.955Z,82.59
2022-09-16T04:00:50.817Z,83.57
2022-09-16T04:03:19.226Z,82.98
2022-09-16T04:05:47.384Z,83.12
2022-09-16T04:08:15.515Z,83.52
2022-09-16T04:10:54.026Z,83.83
2022-09-16T04:13:21.759Z,85.09
2022-09-16T04:15:49.519Z,83.56
2022-09-16T04:18:17.990Z,84.33
2022-09-16T04:20:47.106Z,85.00
2022-09-16T04:23:15.151Z,85.10
2022-09-16T04:25:44.154Z,84.95
2022-09-16T04:28:12.155Z,84.49
2022-09-16T04:30:39.980Z,84.54
2022-09-16T04:33:07.753Z,85.10
2022-09-16T04:35:35.446Z,83.99
2022-09-16T04:38:03.525Z,83.85
2022-09-16T04:40:31.216Z,85.13
2022-09-16T04:43:00.313Z,84.76
2022-09-16T04:45:28.042Z,83.64
2022-09-16T04:47:57.917Z,84.35
2022-09-16T04:50:25.723Z,83.74
2022-09-16T04:52:54.281Z,83.73
2022-09-16T04:55:24.083Z,85.28
2022-09-16T04:57:52.805Z,83.41
2022-09-16T05:00:22.064Z,84.73
2022-09-16T05:02:50.140Z,83.14
2022-09-16T05:05:18.296Z,84.81
2022-09-16T05:07:46.429Z,84.16
2022-09-16T05:10:14.214Z,82.09
2022-09-16T05:12:44.732Z,84.82
2022-09-16T05:15:15.819Z,82.21
2022-09-16T05:17:51.223Z,82.19
2022-09-16T05:20:19.521Z,81.34
2022-09-16T05:22:50.408Z,82.89
2022-09-16T05:25:18.526Z,83.01
2022-09-16T05:27:47.506Z,82.13
2022-09-16T05:30:17.378Z,81.96
2022-09-16T05:32:50.191Z,82.22
2022-09-16T05:35:18.121Z,83.18
2022-09-16T05:37:46.283Z,82.64
2022-09-16T05:40:14.717Z,82.83
2022-09-16T05:42:43.086Z,83.97
2022-09-16T05:45:11.807Z,82.55
2022-09-16T05:47:42.789Z,82.04
2022-09-16T05:50:12.111Z,82.70
2022-09-16T05:52:40.430Z,82.01
2022-09-16T05:55:09.612Z,81.70
2022-09-16T05:57:37.853Z,78.88
2022-09-16T06:00:07.175Z,80.50
2022-09-16T06:02:35.368Z,80.53
2022-09-16T06:05:03.366Z,80.02
2022-09-16T06:07:33.059Z,80.24
2022-09-16T06:10:01.377Z,78.47
2022-09-16T06:12:29.751Z,79.81
2022-09-16T06:14:57.551Z,78.23
2022-09-16T06:17:25.375Z,78.73
2022-09-16T06:19:53.284Z,76.92
2022-09-16T06:22:21.052Z,76.39
2022-09-16T06:24:50.483Z,75.62
2022-09-16T06:27:18.798Z,75.50
2022-09-16T06:29:46.717Z,74.76
2022-09-16T06:32:15.889Z,72.39
2022-09-16T06:34:44.190Z,74.99
2022-09-16T06:37:13.654Z,74.80
2022-09-16T06:39:42.775Z,71.06
2022-09-16T06:42:12.564Z,70.65
2022-09-16T06:44:40.339Z,74.92
2022-09-16T06:47:08.514Z,70.61
2022-09-16T06:49:36.505Z,71.78
2022-09-16T06:52:04.866Z,68.84
2022-09-16T06:54:32.620Z,69.19
2022-09-16T06:57:00.737Z,68.51
2022-09-16T06:59:29.955Z,68.54
2022-09-16T07:01:58.140Z,66.10
2022-09-16T07:04:26.035Z,69.54
2022-09-16T07:07:10.581Z,67.93
2022-09-16T07:09:38.612Z,66.20
2022-09-16T07:12:07.225Z,63.17
2022-09-16T07:14:36.363Z,64.13
2022-09-16T07:17:05.068Z,60.55
2022-09-16T07:19:32.799Z,58.33
2022-09-16T07:22:00.940Z,58.20
2022-09-16T07:24:28.913Z,56.78
2022-09-16T07:26:57.031Z,60.00
2022-09-16T07:29:24.848Z,46.43
2022-09-16T07:31:54.375Z,48.43
2022-09-16T07:34:22.401Z,45.77
2022-09-16T07:36:51.238Z,47.01
2022-09-16T07:39:21.150Z,43.60
2022-09-16T07:41:50.014Z,45.46
2022-09-16T07:44:19.411Z,48.18
2022-09-16T07:46:48.464Z,48.32
2022-09-16T07:49:19.113Z,44.63
2022-09-16T07:51:47.232Z,45.89
2022-09-16T07:54:17.437Z,43.00
2022-09-16T07:56:46.310Z,47.17
2022-09-16T07:59:18.694Z,49.34
2022-09-16T08:01:47.684Z,47.53
2022-09-16T08:04:17.378Z,48.65
2022-09-16T08:06:45.645Z,44.53
2022-09-16T08:09:37.394Z,39.14
2022-09-16T08:12:04.606Z,38.00
2022-09-16T08:14:33.209Z,41.28
2022-09-16T08:17:04.262Z,41.63
2022-09-16T08:19:33.316Z,42.88
2022-09-16T08:22:01.355Z,45.04
2022-09-16T08:24:29.031Z,43.77
2022-09-16T08:29:29.724Z,43.11
2022-09-16T08:31:57.831Z,41.32
2022-09-16T08:34:25.836Z,40.75
2022-09-16T08:36:55.328Z,42.48
2022-09-16T08:39:23.069Z,40.31
2022-09-16T08:42:19.899Z,41.03
2022-09-16T08:44:57.622Z,44.10
2022-09-16T08:47:36.594Z,45.50
2022-09-16T08:50:07.148Z,46.82
2022-09-16T08:52:38.882Z,47.28
2022-09-16T08:55:12.438Z,41.58
2022-09-16T08:57:43.948Z,38.85
2022-09-16T09:00:16.606Z,40.89
2022-09-16T09:02:52.293Z,40.68
2022-09-16T09:05:28.318Z,42.38
2022-09-16T09:08:11.620Z,41.42
2022-09-16T09:10:47.010Z,42.50
2022-09-16T09:13:32.149Z,45.33
2022-09-16T09:16:10.360Z,45.92
2022-09-16T09:18:44.694Z,47.46
2022-09-16T09:21:27.241Z,45.83
2022-09-16T09:24:18.383Z,45.26
2022-09-16T09:26:50.285Z,39.49
2022-09-16T09:29:33.884Z,38.62
2022-09-16T09:32:15.036Z,37.97
2022-09-16T09:35:06.437Z,35.81
2022-09-16T09:38:05.562Z,31.95
2022-09-16T09:40:40.697Z,31.50
2022-09-16T09:43:13.432Z,35.40
2022-09-16T09:45:49.462Z,35.96
2022-09-16T09:48:22.345Z,35.84
2022-09-16T09:50:51.765Z,35.09
2022-09-16T09:53:23.572Z,35.57
2022-09-16T09:56:06.254Z,36.13
2022-09-16T09:58:40.980Z,38.62
2022-09-16T10:01:11.586Z,37.81
2022-09-16T10:03:40.595Z,38.96
2022-09-16T10:06:08.941Z,40.16
2022-09-16T10:08:50.105Z,39.98
2022-09-16T10:11:21.976Z,38.85
2022-09-16T10:13:53.434Z,39.88
2022-09-16T10:16:23.534Z,37.80
2022-09-16T10:19:02.674Z,38.00
2022-09-16T10:21:46.174Z,38.69
2022-09-16T10:24:35.077Z,35.90
2022-09-16T10:27:21.692Z,36.10
2022-09-16T10:30:03.337Z,37.92
2022-09-16T10:32:32.081Z,36.55
2022-09-16T10:35:00.142Z,38.43
2022-09-16T10:37:30.383Z,39.06
2022-09-16T10:39:59.493Z,39.92
2022-09-16T10:42:41.043Z,42.47
2022-09-16T10:45:16.766Z,40.30
2022-09-16T10:47:51.582Z,38.73
2022-09-16T10:50:20.877Z,38.09
2022-09-16T10:52:50.120Z,36.54
2022-09-16T10:55:28.393Z,37.77
2022-09-16T10:58:08.856Z,36.68
2022-09-16T11:00:46.996Z,36.43
2022-09-16T11:03:43.294Z,36.90
2022-09-16T11:06:24.019Z,36.53
2022-09-16T11:09:03.125Z,35.60
2022-09-16T11:11:45.683Z,35.83
2022-09-16T11:14:24.679Z,38.03
2022-09-16T11:17:11.513Z,38.20
2022-09-16T11:19:51.036Z,37.36
2022-09-16T11:22:31.015Z,37.60
2022-09-16T11:25:25.990Z,36.90
2022-09-16T11:28:02.591Z,38.41
2022-09-16T11:30:39.067Z,39.72
2022-09-16T11:33:20.648Z,37.36
2022-09-16T11:36:24.865Z,37.46
2022-09-16T11:39:06.142Z,37.16
2022-09-16T11:41:41.312Z,35.97
2022-09-16T11:44:26.425Z,37.44
2022-09-16T11:47:08.146Z,36.54
2022-09-16T11:49:48.912Z,37.88
2022-09-16T11:52:33.899Z,38.06
2022-09-16T11:55:19.483Z,39.28
2022-09-16T11:57:53.839Z,38.64
2022-09-16T12:00:21.602Z,37.67
2022-09-16T12:02:59.752Z,38.21
2022-09-16T12:05:34.547Z,37.75
2022-09-16T12:08:11.029Z,38.58
2022-09-16T12:10:46.352Z,36.44
2022-09-16T12:13:18.338Z,38.00
2022-09-16T12:15:50.421Z,37.10
2022-09-16T12:18:23.647Z,36.72
2022-09-16T12:20:54.810Z,37.06
2022-09-16T12:23:25.751Z,35.91
2022-09-16T12:26:05.756Z,37.13
2022-09-16T12:28:39.145Z,35.33
2022-09-16T12:31:14.613Z,36.99
2022-09-16T12:33:50.404Z,38.39
2022-09-16T12:36:23.954Z,38.32
2022-09-16T12:38:52.383Z,38.98
2022-09-16T12:41:43.209Z,41.14
2022-09-16T12:44:44.765Z,49.61
2022-09-16T12:47:27.084Z,57.38
2022-09-16T12:50:16.049Z,66.36
2022-09-16T12:53:07.217Z,69.41
2022-09-16T12:56:02.718Z,68.88
2022-09-16T13:01:54.621Z,69.22
2022-09-16T13:04:31.094Z,70.38
2022-09-16T13:31:33.963Z,52.52
2022-09-16T13:34:16.493Z,51.11
2022-09-16T13:36:44.589Z,52.51
2022-09-16T13:39:14.619Z,52.96
2022-09-16T13:41:44.736Z,51.27
2022-09-16T13:44:31.869Z,47.59
2022-09-16T13:47:18.000Z,48.36
2022-09-16T13:49:51.718Z,50.11
2022-09-16T13:52:22.932Z,48.18
2022-09-16T13:55:10.111Z,49.13
2022-09-16T13:57:49.768Z,50.92
2022-09-16T14:00:22.299Z,49.22
2022-09-16T14:03:03.358Z,48.54
2022-09-16T14:05:45.135Z,46.75
2022-09-16T14:08:20.937Z,46.09
2022-09-16T14:10:57.944Z,46.79
2022-09-16T14:13:33.685Z,46.75
2022-09-16T14:16:01.686Z,46.46
2022-09-16T14:18:34.377Z,44.02
2022-09-16T14:21:05.495Z,43.19
2022-09-16T14:23:35.397Z,44.80
2022-09-16T14:26:11.841Z,46.45
2022-09-16T14:28:39.931Z,44.88
2022-09-16T14:31:09.908Z,46.31
2022-09-16T14:33:43.816Z,47.36
2022-09-16T14:36:15.923Z,46.37
2022-09-16T14:38:48.469Z,46.65
2022-09-16T14:41:24.055Z,47.31
2022-09-16T14:43:53.452Z,47.28
2022-09-16T14:46:21.369Z,47.82
2022-09-16T14:48:51.248Z,46.48
2022-09-16T14:51:25.156Z,47.19
2022-09-16T14:54:12.155Z,47.34
2022-09-16T14:56:41.127Z,48.84
2022-09-16T14:59:13.195Z,54.64
2022-09-16T15:01:41.998Z,58.60
2022-09-16T15:04:19.125Z,62.79
2022-09-16T15:06:52.760Z,69.06
2022-09-16T15:09:25.795Z,70.51
2022-09-16T15:11:58.135Z,69.67
2022-09-16T15:14:27.269Z,68.61
2022-09-16T15:16:59.890Z,67.26
2022-09-16T15:19:34.417Z,66.56
2022-09-16T15:22:03.381Z,66.29
2022-09-16T15:24:36.194Z,64.21
2022-09-16T15:27:04.966Z,64.09
2022-09-16T15:29:35.621Z,64.70
2022-09-16T15:32:21.652Z,65.61
2022-09-16T15:35:05.510Z,65.59
2022-09-16T15:37:34.910Z,66.12
2022-09-16T15:40:20.640Z,65.96
2022-09-16T15:42:49.480Z,65.56
2022-09-16T15:45:20.319Z,64.69
2022-09-16T15:47:57.637Z,63.39
2022-09-16T15:50:30.552Z,62.95
2022-09-16T15:53:03.187Z,63.94
2022-09-16T15:55:36.242Z,64.12
2022-09-16T15:58:11.881Z,64.27
2022-09-16T16:01:13.365Z,65.35
2022-09-16T16:03:53.197Z,65.99
2022-09-16T16:06:43.293Z,67.51
2022-09-16T16:09:35.287Z,69.90
2022-09-16T16:12:05.606Z,70.82
2022-09-16T16:14:34.257Z,74.02
2022-09-16T16:17:19.091Z,75.41
2022-09-16T16:19:49.726Z,75.54
2022-09-16T16:22:20.940Z,75.39
2022-09-16T16:24:48.910Z,77.24
2022-09-16T16:27:16.718Z,76.95
2022-09-16T16:29:44.490Z,77.71
2022-09-16T16:32:14.532Z,78.46
2022-09-16T16:34:43.872Z,78.07
2022-09-16T16:37:27.954Z,78.01
2022-09-16T16:40:03.253Z,78.92
2022-09-16T16:42:31.609Z,79.82
2022-09-16T16:44:59.530Z,79.63
2022-09-16T16:47:27.367Z,80.09
2022-09-16T16:49:55.626Z,80.27
2022-09-16T16:52:23.539Z,80.46
2022-09-16T16:54:52.066Z,80.31
2022-09-16T16:57:21.765Z,79.66
2022-09-16T16:59:49.471Z,79.65
2022-09-16T17:02:17.967Z,80.41
2022-09-16T17:04:45.854Z,80.58
2022-09-16T17:07:25.658Z,81.09
2022-09-16T17:09:54.746Z,81.49
2022-09-16T17:12:24.360Z,81.44
2022-09-16T17:14:52.215Z,81.37
2022-09-16T17:17:20.643Z,82.30
2022-09-16T17:19:48.502Z,81.83
2022-09-16T17:22:16.601Z,82.06
2022-09-16T17:24:44.468Z,82.38
2022-09-16T17:27:14.580Z,82.34
2022-09-16T17:29:43.756Z,82.46
2022-09-16T17:32:11.965Z,82.87
2022-09-16T17:34:41.487Z,82.72
2022-09-16T17:37:09.462Z,82.39
2022-09-16T17:39:38.363Z,83.21
2022-09-16T17:42:06.778Z,83.27
2022-09-16T17:44:34.735Z,83.38
2022-09-16T17:47:04.150Z,82.88
2022-09-16T17:49:32.869Z,82.45
2022-09-16T17:52:00.558Z,86.56
2022-09-16T17:54:28.557Z,87.90
2022-09-16T17:56:56.182Z,84.75
2022-09-16T17:59:26.065Z,84.78
2022-09-16T18:01:53.764Z,82.24
2022-09-16T18:04:23.236Z,83.97
2022-09-16T18:06:51.517Z,85.19
2022-09-16T18:09:19.502Z,82.09
2022-09-16T18:11:47.231Z,86.87
2022-09-16T18:14:17.299Z,86.82
2022-09-16T18:16:47.936Z,85.26
2022-09-16T18:19:16.127Z,83.43
2022-09-16T18:21:45.193Z,84.04
2022-09-16T18:24:13.808Z,83.15
2022-09-16T18:26:42.128Z,84.14
2022-09-16T18:29:12.082Z,84.64
2022-09-16T18:31:41.889Z,84.82
2022-09-16T18:34:10.021Z,84.59
2022-09-16T18:36:39.210Z,85.70
2022-09-16T18:39:12.165Z,86.00
2022-09-16T18:41:41.525Z,85.97
2022-09-16T18:44:14.792Z,86.09
2022-09-16T18:46:42.908Z,86.41
2022-09-16T18:49:13.755Z,85.01
2022-09-16T18:51:49.849Z,86.17
2022-09-16T18:54:24.864Z,85.84
2022-09-16T18:56:55.606Z,85.99
2022-09-16T18:59:26.878Z,85.90
2022-09-16T19:01:56.848Z,86.52
2022-09-16T19:04:27.218Z,87.23
2022-09-16T19:06:57.020Z,87.20
2022-09-16T19:09:26.450Z,87.00
2022-09-16T19:11:54.549Z,88.27
2022-09-16T19:14:24.853Z,87.45
2022-09-16T19:16:53.156Z,87.78
2022-09-16T19:19:21.726Z,88.09
2022-09-16T19:21:50.161Z,87.96
2022-09-16T19:24:19.641Z,88.68
2022-09-16T19:26:50.502Z,88.98
2022-09-16T19:29:19.515Z,89.50
2022-09-16T19:31:50.447Z,89.59
2022-09-16T19:34:18.727Z,90.13
2022-09-16T19:36:46.531Z,90.64
2022-09-16T19:39:15.055Z,90.26
2022-09-16T19:41:44.183Z,90.41
2022-09-16T19:44:15.616Z,91.01
2022-09-16T19:46:45.145Z,90.40
2022-09-16T19:49:18.237Z,90.44
2022-09-16T19:51:46.208Z,90.67
2022-09-16T19:54:13.925Z,90.85
2022-09-16T19:56:47.012Z,90.54
2022-09-16T19:59:19.713Z,90.68
2022-09-16T20:01:48.264Z,90.95
2022-09-16T20:04:19.422Z,90.58
2022-09-16T20:06:47.660Z,91.30
2022-09-16T20:09:15.341Z,92.54
2022-09-16T20:11:45.403Z,92.04
2022-09-16T20:14:16.215Z,91.78
2022-09-16T20:16:45.739Z,91.80
2022-09-16T20:19:16.173Z,91.83
2022-09-16T20:21:44.770Z,92.06
2022-09-16T20:24:15.762Z,91.10
2022-09-16T20:26:44.034Z,91.83
2022-09-16T20:29:11.985Z,92.03
2022-09-16T20:31:40.138Z,91.45
2022-09-16T20:34:11.948Z,91.71
2022-09-16T20:36:40.738Z,91.68
2022-09-16T20:39:09.327Z,91.70
2022-09-16T20:41:38.984Z,91.92
2022-09-16T20:44:07.115Z,93.53
2022-09-16T20:46:37.330Z,92.09
2022-09-16T20:49:09.395Z,91.96
2022-09-16T20:51:38.506Z,93.15
2022-09-16T20:54:08.721Z,92.37
2022-09-16T20:56:39.396Z,92.23
2022-09-16T20:59:08.476Z,91.41
2022-09-16T21:01:38.377Z,92.27
2022-09-16T21:04:08.087Z,92.20
2022-09-16T21:06:38.274Z,92.26
2022-09-16T21:09:11.424Z,92.58
2022-09-16T21:11:45.095Z,91.90
2022-09-16T21:14:16.035Z,91.33
2022-09-16T21:16:45.867Z,90.68
2022-09-16T21:19:14.044Z,91.17
2022-09-16T21:21:46.579Z,91.31
2022-09-16T21:24:14.535Z,91.88
2022-09-16T21:26:44.266Z,92.00
2022-09-16T21:29:13.740Z,91.67
2022-09-16T21:31:43.561Z,92.19
2022-09-16T21:34:13.886Z,91.70
2022-09-16T21:36:45.107Z,92.71
2022-09-16T21:39:13.713Z,91.91
2022-09-16T21:41:41.959Z,92.36
2022-09-16T21:44:09.867Z,93.03
2022-09-16T21:46:48.184Z,92.21
2022-09-16T21:49:22.410Z,91.75
2022-09-16T21:51:52.484Z,92.90
2022-09-16T21:54:20.835Z,93.13
2022-09-16T21:56:49.562Z,91.52
2022-09-16T21:59:17.585Z,92.13
2022-09-16T22:01:45.836Z,91.54
2022-09-16T22:04:15.558Z,92.91
2022-09-16T22:06:44.174Z,91.86
2022-09-16T22:09:13.606Z,89.94
2022-09-16T22:11:42.777Z,91.09
2022-09-16T22:14:12.446Z,90.56
2022-09-16T22:16:41.482Z,90.67
2022-09-16T22:19:11.214Z,90.17
2022-09-16T22:21:41.506Z,88.62
2022-09-16T22:24:10.172Z,90.20
2022-09-16T22:26:39.564Z,89.39
2022-09-16T22:29:09.387Z,87.64
2022-09-16T22:31:38.791Z,87.72
2022-09-16T22:34:07.032Z,87.33
2022-09-16T22:36:36.592Z,88.97
2022-09-16T22:39:07.142Z,88.24
2022-09-16T22:41:35.463Z,88.98
2022-09-16T22:44:05.558Z,88.09
2022-09-16T22:46:36.672Z,89.43
2022-09-16T22:49:05.290Z,89.62
2022-09-16T22:51:33.438Z,90.08
2022-09-16T22:54:01.181Z,89.05
2022-09-16T22:56:32.439Z,88.68
2022-09-16T22:59:02.116Z,88.98
2022-09-16T23:01:33.475Z,89.49
2022-09-16T23:04:03.290Z,89.43
2022-09-16T23:06:32.913Z,89.57
2022-09-16T23:09:01.042Z,89.47
2022-09-16T23:11:31.204Z,90.68
2022-09-16T23:14:00.203Z,90.33
2022-09-16T23:16:30.467Z,91.87
2022-09-16T23:19:01.993Z,91.35
2022-09-16T23:21:31.321Z,91.64
2022-09-16T23:24:05.230Z,92.16
2022-09-16T23:26:37.991Z,91.33
2022-09-16T23:29:08.012Z,90.83
2022-09-16T23:31:37.710Z,90.21
2022-09-16T23:34:08.615Z,91.45
2022-09-16T23:36:38.267Z,90.75
2022-09-16T23:39:07.424Z,91.49
2022-09-16T23:41:35.631Z,91.59
2022-09-16T23:44:03.615Z,91.73
2022-09-16T23:46:31.715Z,91.76
2022-09-16T23:49:00.001Z,91.02
2022-09-16T23:51:32.292Z,90.96
2022-09-16T23:54:00.637Z,92.47
2022-09-16T23:56:28.724Z,91.47
2022-09-16T23:59:00.513Z,91.61
